sensor_id;sensor_type;location;lat;lon;timestamp;P1;durP1;ratioP1;P2;durP2;ratioP2
22904;SDS011;11619;50.140;8.518;2022-12-05T00:00:59;21.17;;;15.90;;
22904;SDS011;11619;50.140;8.518;2022-12-05T00:03:41;19.67;;;15.23;;
22904;SDS011;11619;50.140;8.518;2022-12-05T00:06:08;22.05;;;17.00;;
22904;SDS011;11619;50.140;8.518;2022-12-05T00:08:35;22.10;;;16.75;;
22904;SDS011;11619;50.140;8.518;2022-12-05T00:11:02;22.35;;;17.15;;
22904;SDS011;11619;50.140;8.518;2022-12-05T00:13:28;19.15;;;15.02;;
22904;SDS011;11619;50.140;8.518;2022-12-05T00:15:55;21.35;;;16.77;;
22904;SDS011;11619;50.140;8.518;2022-12-05T00:18:21;19.42;;;15.18;;
22904;SDS011;11619;50.140;8.518;2022-12-05T00:20:48;22.73;;;16.10;;
22904;SDS011;11619;50.140;8.518;2022-12-05T00:23:14;20.50;;;16.60;;
22904;SDS011;11619;50.140;8.518;2022-12-05T00:25:41;21.27;;;16.70;;
22904;SDS011;11619;50.140;8.518;2022-12-05T00:28:07;21.88;;;16.73;;
22904;SDS011;11619;50.140;8.518;2022-12-05T00:30:34;21.05;;;16.10;;
22904;SDS011;11619;50.140;8.518;2022-12-05T00:33:00;21.85;;;16.73;;
22904;SDS011;11619;50.140;8.518;2022-12-05T00:35:26;23.98;;;17.27;;
22904;SDS011;11619;50.140;8.518;2022-12-05T00:37:53;21.48;;;16.10;;
22904;SDS011;11619;50.140;8.518;2022-12-05T00:40:19;23.80;;;16.33;;
22904;SDS011;11619;50.140;8.518;2022-12-05T00:42:46;22.30;;;16.48;;
22904;SDS011;11619;50.140;8.518;2022-12-05T00:45:17;22.10;;;16.65;;
22904;SDS011;11619;50.140;8.518;2022-12-05T00:47:44;22.85;;;16.40;;
22904;SDS011;11619;50.140;8.518;2022-12-05T00:50:10;22.40;;;16.60;;
22904;SDS011;11619;50.140;8.518;2022-12-05T00:52:37;21.50;;;16.88;;
22904;SDS011;11619;50.140;8.518;2022-12-05T00:55:03;19.55;;;16.00;;
22904;SDS011;11619;50.140;8.518;2022-12-05T00:57:30;22.17;;;17.45;;
22904;SDS011;11619;50.140;8.518;2022-12-05T00:59:57;23.05;;;16.70;;
22904;SDS011;11619;50.140;8.518;2022-12-05T01:02:24;25.70;;;17.15;;
22904;SDS011;11619;50.140;8.518;2022-12-05T01:04:50;21.88;;;16.48;;
22904;SDS011;11619;50.140;8.518;2022-12-05T01:07:17;24.70;;;17.17;;
22904;SDS011;11619;50.140;8.518;2022-12-05T01:09:43;20.60;;;15.90;;
22904;SDS011;11619;50.140;8.518;2022-12-05T01:12:09;21.08;;;15.88;;
22904;SDS011;11619;50.140;8.518;2022-12-05T01:14:36;20.60;;;15.35;;
22904;SDS011;11619;50.140;8.518;2022-12-05T01:17:02;19.73;;;15.20;;
22904;SDS011;11619;50.140;8.518;2022-12-05T01:19:30;21.17;;;16.08;;
22904;SDS011;11619;50.140;8.518;2022-12-05T01:21:57;19.30;;;15.90;;
22904;SDS011;11619;50.140;8.518;2022-12-05T01:24:24;21.67;;;16.90;;
22904;SDS011;11619;50.140;8.518;2022-12-05T01:26:52;20.58;;;15.27;;
22904;SDS011;11619;50.140;8.518;2022-12-05T01:29:20;21.08;;;16.33;;
22904;SDS011;11619;50.140;8.518;2022-12-05T01:31:47;21.95;;;16.10;;
22904;SDS011;11619;50.140;8.518;2022-12-05T01:34:14;21.10;;;14.82;;
22904;SDS011;11619;50.140;8.518;2022-12-05T01:36:42;18.60;;;14.57;;
22904;SDS011;11619;50.140;8.518;2022-12-05T01:39:09;18.90;;;14.60;;
22904;SDS011;11619;50.140;8.518;2022-12-05T01:41:40;20.25;;;15.43;;
22904;SDS011;11619;50.140;8.518;2022-12-05T01:46:39;17.17;;;13.75;;
22904;SDS011;11619;50.140;8.518;2022-12-05T01:49:14;19.73;;;14.80;;
22904;SDS011;11619;50.140;8.518;2022-12-05T01:51:45;19.67;;;15.32;;
22904;SDS011;11619;50.140;8.518;2022-12-05T01:54:13;20.05;;;14.63;;
22904;SDS011;11619;50.140;8.518;2022-12-05T01:56:41;20.20;;;14.60;;
22904;SDS011;11619;50.140;8.518;2022-12-05T01:59:10;20.80;;;14.77;;
22904;SDS011;11619;50.140;8.518;2022-12-05T02:01:37;19.30;;;15.45;;
22904;SDS011;11619;50.140;8.518;2022-12-05T02:04:04;19.67;;;14.40;;
22904;SDS011;11619;50.140;8.518;2022-12-05T02:06:31;20.75;;;14.95;;
22904;SDS011;11619;50.140;8.518;2022-12-05T02:08:58;18.70;;;15.00;;
22904;SDS011;11619;50.140;8.518;2022-12-05T02:11:26;17.75;;;14.48;;
22904;SDS011;11619;50.140;8.518;2022-12-05T02:16:57;16.88;;;13.50;;
22904;SDS011;11619;50.140;8.518;2022-12-05T02:19:39;19.00;;;13.43;;
22904;SDS011;11619;50.140;8.518;2022-12-05T02:39:02;17.17;;;13.80;;
22904;SDS011;11619;50.140;8.518;2022-12-05T02:41:36;20.88;;;14.40;;
22904;SDS011;11619;50.140;8.518;2022-12-05T02:44:09;18.90;;;14.50;;
22904;SDS011;11619;50.140;8.518;2022-12-05T02:46:38;20.58;;;15.13;;
22904;SDS011;11619;50.140;8.518;2022-12-05T02:49:06;21.27;;;15.07;;
22904;SDS011;11619;50.140;8.518;2022-12-05T02:51:38;21.45;;;15.50;;
22904;SDS011;11619;50.140;8.518;2022-12-05T02:54:07;23.35;;;15.88;;
22904;SDS011;11619;50.140;8.518;2022-12-05T02:56:37;16.77;;;13.90;;
22904;SDS011;11619;50.140;8.518;2022-12-05T02:59:04;17.45;;;13.13;;
22904;SDS011;11619;50.140;8.518;2022-12-05T03:01:30;16.52;;;12.43;;
22904;SDS011;11619;50.140;8.518;2022-12-05T03:03:58;17.80;;;13.43;;
22904;SDS011;11619;50.140;8.518;2022-12-05T03:06:28;20.83;;;14.55;;
22904;SDS011;11619;50.140;8.518;2022-12-05T03:11:37;16.67;;;12.65;;
22904;SDS011;11619;50.140;8.518;2022-12-05T03:14:10;21.60;;;15.63;;
22904;SDS011;11619;50.140;8.518;2022-12-05T03:16:40;19.13;;;13.82;;
22904;SDS011;11619;50.140;8.518;2022-12-05T03:19:29;21.70;;;15.43;;
22904;SDS011;11619;50.140;8.518;2022-12-05T03:22:02;23.23;;;15.63;;
22904;SDS011;11619;50.140;8.518;2022-12-05T03:24:33;18.75;;;15.07;;
22904;SDS011;11619;50.140;8.518;2022-12-05T03:27:20;23.75;;;15.95;;
22904;SDS011;11619;50.140;8.518;2022-12-05T03:29:57;23.10;;;15.07;;
22904;SDS011;11619;50.140;8.518;2022-12-05T03:35:02;21.00;;;14.80;;
22904;SDS011;11619;50.140;8.518;2022-12-05T03:40:33;18.52;;;14.07;;
22904;SDS011;11619;50.140;8.518;2022-12-05T03:43:07;20.65;;;15.50;;
22904;SDS011;11619;50.140;8.518;2022-12-05T03:46:08;20.75;;;15.95;;
22904;SDS011;11619;50.140;8.518;2022-12-05T03:51:07;18.95;;;13.85;;
22904;SDS011;11619;50.140;8.518;2022-12-05T03:53:52;16.80;;;13.85;;
22904;SDS011;11619;50.140;8.518;2022-12-05T03:56:24;19.63;;;14.35;;
22904;SDS011;11619;50.140;8.518;2022-12-05T03:59:01;20.05;;;14.90;;
22904;SDS011;11619;50.140;8.518;2022-12-05T04:01:30;21.30;;;15.50;;
22904;SDS011;11619;50.140;8.518;2022-12-05T04:04:00;20.85;;;15.30;;
22904;SDS011;11619;50.140;8.518;2022-12-05T04:06:34;22.63;;;15.48;;
22904;SDS011;11619;50.140;8.518;2022-12-05T04:09:07;22.52;;;16.23;;
22904;SDS011;11619;50.140;8.518;2022-12-05T04:11:44;24.50;;;16.80;;
22904;SDS011;11619;50.140;8.518;2022-12-05T04:14:36;20.73;;;16.33;;
22904;SDS011;11619;50.140;8.518;2022-12-05T04:17:05;25.27;;;17.70;;
22904;SDS011;11619;50.140;8.518;2022-12-05T04:19:40;20.60;;;15.63;;
22904;SDS011;11619;50.140;8.518;2022-12-05T04:22:28;21.85;;;15.85;;
22904;SDS011;11619;50.140;8.518;2022-12-05T04:24:55;22.35;;;16.58;;
22904;SDS011;11619;50.140;8.518;2022-12-05T04:27:53;26.42;;;17.08;;
22904;SDS011;11619;50.140;8.518;2022-12-05T04:30:25;22.55;;;15.98;;
22904;SDS011;11619;50.140;8.518;2022-12-05T04:33:15;25.20;;;17.27;;
22904;SDS011;11619;50.140;8.518;2022-12-05T04:35:49;23.33;;;16.92;;
22904;SDS011;11619;50.140;8.518;2022-12-05T04:41:23;28.70;;;19.25;;
22904;SDS011;11619;50.140;8.518;2022-12-05T04:43:55;28.25;;;19.15;;
22904;SDS011;11619;50.140;8.518;2022-12-05T04:46:24;30.20;;;19.27;;
22904;SDS011;11619;50.140;8.518;2022-12-05T04:48:53;27.42;;;19.95;;
22904;SDS011;11619;50.140;8.518;2022-12-05T04:51:22;29.88;;;20.05;;
22904;SDS011;11619;50.140;8.518;2022-12-05T04:53:52;31.55;;;20.58;;
22904;SDS011;11619;50.140;8.518;2022-12-05T04:56:21;28.52;;;19.02;;
22904;SDS011;11619;50.140;8.518;2022-12-05T04:58:50;31.65;;;19.38;;
22904;SDS011;11619;50.140;8.518;2022-12-05T05:01:18;34.85;;;20.08;;
22904;SDS011;11619;50.140;8.518;2022-12-05T05:06:19;30.88;;;17.92;;
22904;SDS011;11619;50.140;8.518;2022-12-05T05:08:46;30.42;;;19.23;;
22904;SDS011;11619;50.140;8.518;2022-12-05T05:11:16;32.17;;;19.55;;
22904;SDS011;11619;50.140;8.518;2022-12-05T05:13:44;31.85;;;18.52;;
22904;SDS011;11619;50.140;8.518;2022-12-05T05:16:14;28.35;;;17.80;;
22904;SDS011;11619;50.140;8.518;2022-12-05T05:18:46;33.13;;;19.00;;
22904;SDS011;11619;50.140;8.518;2022-12-05T05:21:14;30.55;;;18.23;;
22904;SDS011;11619;50.140;8.518;2022-12-05T05:23:42;28.00;;;17.05;;
22904;SDS011;11619;50.140;8.518;2022-12-05T05:26:08;28.02;;;17.98;;
22904;SDS011;11619;50.140;8.518;2022-12-05T05:28:35;28.73;;;18.15;;
22904;SDS011;11619;50.140;8.518;2022-12-05T05:31:02;28.92;;;17.48;;
22904;SDS011;11619;50.140;8.518;2022-12-05T05:33:29;30.48;;;19.05;;
22904;SDS011;11619;50.140;8.518;2022-12-05T05:35:56;31.00;;;19.00;;
22904;SDS011;11619;50.140;8.518;2022-12-05T05:38:22;30.48;;;18.98;;
22904;SDS011;11619;50.140;8.518;2022-12-05T05:40:48;32.90;;;19.70;;
22904;SDS011;11619;50.140;8.518;2022-12-05T05:43:15;31.95;;;19.45;;
22904;SDS011;11619;50.140;8.518;2022-12-05T05:45:41;33.70;;;20.30;;
22904;SDS011;11619;50.140;8.518;2022-12-05T05:48:08;33.63;;;19.55;;
22904;SDS011;11619;50.140;8.518;2022-12-05T05:50:34;29.85;;;18.70;;
22904;SDS011;11619;50.140;8.518;2022-12-05T05:53:01;33.90;;;19.75;;
22904;SDS011;11619;50.140;8.518;2022-12-05T05:55:28;29.90;;;19.45;;
22904;SDS011;11619;50.140;8.518;2022-12-05T05:57:54;38.40;;;20.77;;
22904;SDS011;11619;50.140;8.518;2022-12-05T06:00:21;35.90;;;20.38;;
22904;SDS011;11619;50.140;8.518;2022-12-05T06:02:47;37.88;;;20.40;;
22904;SDS011;11619;50.140;8.518;2022-12-05T06:05:14;36.10;;;19.73;;
22904;SDS011;11619;50.140;8.518;2022-12-05T06:07:40;32.92;;;19.88;;
22904;SDS011;11619;50.140;8.518;2022-12-05T06:10:07;37.40;;;21.10;;
22904;SDS011;11619;50.140;8.518;2022-12-05T06:12:33;36.90;;;21.52;;
22904;SDS011;11619;50.140;8.518;2022-12-05T06:15:00;40.45;;;21.85;;
22904;SDS011;11619;50.140;8.518;2022-12-05T06:17:26;39.05;;;20.65;;
22904;SDS011;11619;50.140;8.518;2022-12-05T06:19:53;38.95;;;22.05;;
22904;SDS011;11619;50.140;8.518;2022-12-05T06:22:19;42.60;;;22.67;;
22904;SDS011;11619;50.140;8.518;2022-12-05T06:24:45;41.63;;;22.08;;
22904;SDS011;11619;50.140;8.518;2022-12-05T06:27:12;41.38;;;22.52;;
22904;SDS011;11619;50.140;8.518;2022-12-05T06:29:38;46.35;;;24.48;;
22904;SDS011;11619;50.140;8.518;2022-12-05T06:32:05;51.28;;;24.65;;
22904;SDS011;11619;50.140;8.518;2022-12-05T06:34:31;44.72;;;24.17;;
22904;SDS011;11619;50.140;8.518;2022-12-05T06:36:58;48.08;;;23.67;;
22904;SDS011;11619;50.140;8.518;2022-12-05T06:39:32;42.65;;;23.55;;
22904;SDS011;11619;50.140;8.518;2022-12-05T06:41:59;40.90;;;22.85;;
22904;SDS011;11619;50.140;8.518;2022-12-05T06:44:26;49.40;;;24.27;;
22904;SDS011;11619;50.140;8.518;2022-12-05T06:46:53;44.60;;;23.05;;
22904;SDS011;11619;50.140;8.518;2022-12-05T06:49:20;39.28;;;23.48;;
22904;SDS011;11619;50.140;8.518;2022-12-05T06:51:55;44.95;;;22.85;;
22904;SDS011;11619;50.140;8.518;2022-12-05T06:54:21;38.03;;;23.13;;
22904;SDS011;11619;50.140;8.518;2022-12-05T06:56:47;41.03;;;21.27;;
22904;SDS011;11619;50.140;8.518;2022-12-05T06:59:14;37.78;;;22.05;;
22904;SDS011;11619;50.140;8.518;2022-12-05T07:01:40;41.33;;;22.30;;
22904;SDS011;11619;50.140;8.518;2022-12-05T07:06:43;41.05;;;21.40;;
22904;SDS011;11619;50.140;8.518;2022-12-05T07:09:16;50.35;;;21.95;;
22904;SDS011;11619;50.140;8.518;2022-12-05T07:11:47;53.05;;;22.50;;
22904;SDS011;11619;50.140;8.518;2022-12-05T07:14:15;65.95;;;26.10;;
22904;SDS011;11619;50.140;8.518;2022-12-05T07:17:02;66.88;;;27.58;;
22904;SDS011;11619;50.140;8.518;2022-12-05T07:19:29;73.05;;;28.20;;
22904;SDS011;11619;50.140;8.518;2022-12-05T07:21:55;60.00;;;27.13;;
22904;SDS011;11619;50.140;8.518;2022-12-05T07:24:22;61.95;;;29.02;;
22904;SDS011;11619;50.140;8.518;2022-12-05T07:26:48;56.70;;;26.73;;
22904;SDS011;11619;50.140;8.518;2022-12-05T07:29:15;49.08;;;23.60;;
22904;SDS011;11619;50.140;8.518;2022-12-05T07:31:41;40.92;;;23.52;;
22904;SDS011;11619;50.140;8.518;2022-12-05T07:34:08;39.67;;;21.63;;
22904;SDS011;11619;50.140;8.518;2022-12-05T07:36:34;35.70;;;21.20;;
22904;SDS011;11619;50.140;8.518;2022-12-05T07:39:00;34.22;;;21.52;;
22904;SDS011;11619;50.140;8.518;2022-12-05T07:41:28;35.35;;;20.60;;
22904;SDS011;11619;50.140;8.518;2022-12-05T07:43:55;35.83;;;20.88;;
22904;SDS011;11619;50.140;8.518;2022-12-05T07:46:23;31.52;;;19.90;;
22904;SDS011;11619;50.140;8.518;2022-12-05T07:48:50;30.45;;;19.55;;
22904;SDS011;11619;50.140;8.518;2022-12-05T07:51:17;32.15;;;20.33;;
22904;SDS011;11619;50.140;8.518;2022-12-05T07:53:44;30.73;;;20.08;;
22904;SDS011;11619;50.140;8.518;2022-12-05T07:56:11;33.85;;;21.70;;
22904;SDS011;11619;50.140;8.518;2022-12-05T07:58:39;31.73;;;19.63;;
22904;SDS011;11619;50.140;8.518;2022-12-05T08:03:37;33.97;;;19.08;;
22904;SDS011;11619;50.140;8.518;2022-12-05T08:06:04;30.50;;;19.65;;
22904;SDS011;11619;50.140;8.518;2022-12-05T08:08:31;27.00;;;18.38;;
22904;SDS011;11619;50.140;8.518;2022-12-05T08:11:05;31.20;;;19.70;;
22904;SDS011;11619;50.140;8.518;2022-12-05T08:13:33;30.83;;;18.98;;
22904;SDS011;11619;50.140;8.518;2022-12-05T08:16:00;34.40;;;20.50;;
22904;SDS011;11619;50.140;8.518;2022-12-05T08:18:28;28.90;;;19.90;;
22904;SDS011;11619;50.140;8.518;2022-12-05T08:20:55;35.00;;;21.02;;
22904;SDS011;11619;50.140;8.518;2022-12-05T08:23:27;33.50;;;21.08;;
22904;SDS011;11619;50.140;8.518;2022-12-05T08:25:54;29.42;;;19.45;;
22904;SDS011;11619;50.140;8.518;2022-12-05T08:28:20;33.75;;;19.88;;
22904;SDS011;11619;50.140;8.518;2022-12-05T08:30:47;31.13;;;21.25;;
22904;SDS011;11619;50.140;8.518;2022-12-05T08:33:13;33.33;;;21.05;;
22904;SDS011;11619;50.140;8.518;2022-12-05T08:35:40;32.65;;;20.35;;
22904;SDS011;11619;50.140;8.518;2022-12-05T08:38:06;32.30;;;21.27;;
22904;SDS011;11619;50.140;8.518;2022-12-05T08:40:33;35.63;;;22.00;;
22904;SDS011;11619;50.140;8.518;2022-12-05T08:42:59;35.67;;;22.80;;
22904;SDS011;11619;50.140;8.518;2022-12-05T08:45:25;32.83;;;21.45;;
22904;SDS011;11619;50.140;8.518;2022-12-05T08:47:52;31.00;;;21.25;;
22904;SDS011;11619;50.140;8.518;2022-12-05T08:50:18;30.23;;;20.08;;
22904;SDS011;11619;50.140;8.518;2022-12-05T08:52:45;27.88;;;19.77;;
22904;SDS011;11619;50.140;8.518;2022-12-05T08:55:11;30.02;;;19.50;;
22904;SDS011;11619;50.140;8.518;2022-12-05T08:57:38;32.65;;;21.20;;
22904;SDS011;11619;50.140;8.518;2022-12-05T09:00:04;30.48;;;19.02;;
22904;SDS011;11619;50.140;8.518;2022-12-05T09:02:31;38.80;;;23.30;;
22904;SDS011;11619;50.140;8.518;2022-12-05T09:04:59;36.00;;;22.80;;
22904;SDS011;11619;50.140;8.518;2022-12-05T09:07:45;33.97;;;22.42;;
22904;SDS011;11619;50.140;8.518;2022-12-05T09:10:12;33.10;;;22.25;;
22904;SDS011;11619;50.140;8.518;2022-12-05T09:12:38;39.00;;;24.27;;
22904;SDS011;11619;50.140;8.518;2022-12-05T09:15:05;43.40;;;25.83;;
22904;SDS011;11619;50.140;8.518;2022-12-05T09:17:32;41.95;;;24.48;;
22904;SDS011;11619;50.140;8.518;2022-12-05T09:19:59;38.88;;;24.92;;
22904;SDS011;11619;50.140;8.518;2022-12-05T09:22:26;35.92;;;23.67;;
22904;SDS011;11619;50.140;8.518;2022-12-05T09:24:52;39.80;;;25.30;;
22904;SDS011;11619;50.140;8.518;2022-12-05T09:27:19;38.30;;;24.08;;
22904;SDS011;11619;50.140;8.518;2022-12-05T09:29:45;33.72;;;23.63;;
22904;SDS011;11619;50.140;8.518;2022-12-05T09:32:11;33.50;;;22.30;;
22904;SDS011;11619;50.140;8.518;2022-12-05T09:34:38;34.25;;;23.00;;
22904;SDS011;11619;50.140;8.518;2022-12-05T09:37:05;33.95;;;22.95;;
22904;SDS011;11619;50.140;8.518;2022-12-05T09:39:52;33.70;;;22.50;;
22904;SDS011;11619;50.140;8.518;2022-12-05T09:47:50;30.88;;;20.55;;
22904;SDS011;11619;50.140;8.518;2022-12-05T09:50:24;39.97;;;22.65;;
22904;SDS011;11619;50.140;8.518;2022-12-05T09:53:03;32.13;;;22.27;;
22904;SDS011;11619;50.140;8.518;2022-12-05T09:55:34;37.42;;;24.42;;
22904;SDS011;11619;50.140;8.518;2022-12-05T09:58:03;38.28;;;23.08;;
22904;SDS011;11619;50.140;8.518;2022-12-05T10:00:30;38.15;;;24.27;;
22904;SDS011;11619;50.140;8.518;2022-12-05T10:05:55;38.47;;;25.67;;
22904;SDS011;11619;50.140;8.518;2022-12-05T10:11:01;38.20;;;23.67;;
22904;SDS011;11619;50.140;8.518;2022-12-05T10:16:10;37.28;;;23.75;;
22904;SDS011;11619;50.140;8.518;2022-12-05T10:19:10;41.38;;;24.77;;
22904;SDS011;11619;50.140;8.518;2022-12-05T10:21:40;37.20;;;24.42;;
22904;SDS011;11619;50.140;8.518;2022-12-05T10:24:17;32.97;;;23.17;;
22904;SDS011;11619;50.140;8.518;2022-12-05T10:26:57;38.47;;;24.17;;
22904;SDS011;11619;50.140;8.518;2022-12-05T10:29:29;36.58;;;23.80;;
22904;SDS011;11619;50.140;8.518;2022-12-05T10:32:13;33.97;;;23.60;;
22904;SDS011;11619;50.140;8.518;2022-12-05T10:34:42;37.78;;;23.88;;
22904;SDS011;11619;50.140;8.518;2022-12-05T10:37:18;37.38;;;24.10;;
22904;SDS011;11619;50.140;8.518;2022-12-05T10:39:46;31.45;;;22.05;;
22904;SDS011;11619;50.140;8.518;2022-12-05T10:42:47;36.95;;;23.15;;
22904;SDS011;11619;50.140;8.518;2022-12-05T10:45:07;36.83;;;22.42;;
22904;SDS011;11619;50.140;8.518;2022-12-05T10:47:43;37.85;;;22.20;;
22904;SDS011;11619;50.140;8.518;2022-12-05T10:50:28;32.72;;;22.52;;
22904;SDS011;11619;50.140;8.518;2022-12-05T10:52:58;31.80;;;21.88;;
22904;SDS011;11619;50.140;8.518;2022-12-05T10:55:30;33.80;;;21.55;;
22904;SDS011;11619;50.140;8.518;2022-12-05T11:00:43;36.90;;;22.75;;
22904;SDS011;11619;50.140;8.518;2022-12-05T11:03:56;35.25;;;22.92;;
22904;SDS011;11619;50.140;8.518;2022-12-05T11:06:16;35.45;;;23.90;;
22904;SDS011;11619;50.140;8.518;2022-12-05T11:08:50;38.45;;;24.35;;
22904;SDS011;11619;50.140;8.518;2022-12-05T11:11:31;39.55;;;25.35;;
22904;SDS011;11619;50.140;8.518;2022-12-05T11:14:02;38.25;;;23.70;;
22904;SDS011;11619;50.140;8.518;2022-12-05T11:16:35;39.60;;;24.17;;
22904;SDS011;11619;50.140;8.518;2022-12-05T11:21:59;32.65;;;21.45;;
22904;SDS011;11619;50.140;8.518;2022-12-05T11:26:58;37.15;;;22.45;;
22904;SDS011;11619;50.140;8.518;2022-12-05T11:29:33;34.95;;;23.40;;
22904;SDS011;11619;50.140;8.518;2022-12-05T11:32:02;32.95;;;22.10;;
22904;SDS011;11619;50.140;8.518;2022-12-05T11:34:32;34.15;;;22.30;;
22904;SDS011;11619;50.140;8.518;2022-12-05T11:37:05;33.17;;;23.17;;
22904;SDS011;11619;50.140;8.518;2022-12-05T11:39:36;34.78;;;22.05;;
22904;SDS011;11619;50.140;8.518;2022-12-05T11:44:43;37.08;;;22.90;;
22904;SDS011;11619;50.140;8.518;2022-12-05T11:47:20;35.33;;;21.88;;
22904;SDS011;11619;50.140;8.518;2022-12-05T11:52:53;31.17;;;20.77;;
22904;SDS011;11619;50.140;8.518;2022-12-05T12:01:15;39.45;;;22.95;;
22904;SDS011;11619;50.140;8.518;2022-12-05T12:04:03;37.72;;;23.25;;
22904;SDS011;11619;50.140;8.518;2022-12-05T12:06:45;36.00;;;22.67;;
22904;SDS011;11619;50.140;8.518;2022-12-05T12:09:39;37.72;;;23.83;;
22904;SDS011;11619;50.140;8.518;2022-12-05T12:25:38;36.33;;;23.38;;
22904;SDS011;11619;50.140;8.518;2022-12-05T12:33:24;34.80;;;23.15;;
22904;SDS011;11619;50.140;8.518;2022-12-05T12:50:18;33.47;;;21.17;;
22904;SDS011;11619;50.140;8.518;2022-12-05T12:58:19;45.92;;;25.30;;
22904;SDS011;11619;50.140;8.518;2022-12-05T13:01:39;40.17;;;25.80;;
22904;SDS011;11619;50.140;8.518;2022-12-05T13:03:47;30.80;;;21.35;;
22904;SDS011;11619;50.140;8.518;2022-12-05T13:06:32;27.45;;;18.75;;
22904;SDS011;11619;50.140;8.518;2022-12-05T13:09:12;23.75;;;17.02;;
22904;SDS011;11619;50.140;8.518;2022-12-05T13:11:44;25.60;;;17.50;;
22904;SDS011;11619;50.140;8.518;2022-12-05T13:14:13;21.48;;;16.42;;
22904;SDS011;11619;50.140;8.518;2022-12-05T13:16:42;24.33;;;17.33;;
22904;SDS011;11619;50.140;8.518;2022-12-05T13:19:54;24.70;;;17.05;;
22904;SDS011;11619;50.140;8.518;2022-12-05T13:22:07;23.10;;;15.73;;
22904;SDS011;11619;50.140;8.518;2022-12-05T13:24:35;25.73;;;16.60;;
22904;SDS011;11619;50.140;8.518;2022-12-05T13:27:04;27.83;;;16.35;;
22904;SDS011;11619;50.140;8.518;2022-12-05T13:29:33;24.48;;;16.92;;
22904;SDS011;11619;50.140;8.518;2022-12-05T13:32:03;25.58;;;16.65;;
22904;SDS011;11619;50.140;8.518;2022-12-05T13:37:08;21.88;;;15.98;;
22904;SDS011;11619;50.140;8.518;2022-12-05T13:39:55;25.42;;;16.58;;
22904;SDS011;11619;50.140;8.518;2022-12-05T13:42:40;21.42;;;16.08;;
22904;SDS011;11619;50.140;8.518;2022-12-05T13:45:14;22.02;;;15.20;;
22904;SDS011;11619;50.140;8.518;2022-12-05T13:47:54;25.02;;;16.80;;
22904;SDS011;11619;50.140;8.518;2022-12-05T13:50:46;22.67;;;15.52;;
22904;SDS011;11619;50.140;8.518;2022-12-05T13:53:24;25.03;;;17.00;;
22904;SDS011;11619;50.140;8.518;2022-12-05T13:55:55;22.50;;;16.98;;
22904;SDS011;11619;50.140;8.518;2022-12-05T14:00:50;23.50;;;16.15;;
22904;SDS011;11619;50.140;8.518;2022-12-05T14:05:50;21.73;;;16.67;;
22904;SDS011;11619;50.140;8.518;2022-12-05T14:08:48;22.92;;;16.60;;
22904;SDS011;11619;50.140;8.518;2022-12-05T14:11:06;22.02;;;16.70;;
22904;SDS011;11619;50.140;8.518;2022-12-05T14:18:52;24.67;;;16.40;;
22904;SDS011;11619;50.140;8.518;2022-12-05T14:21:50;24.90;;;17.30;;
22904;SDS011;11619;50.140;8.518;2022-12-05T14:32:35;27.27;;;16.90;;
22904;SDS011;11619;50.140;8.518;2022-12-05T14:37:52;24.42;;;16.60;;
22904;SDS011;11619;50.140;8.518;2022-12-05T14:48:36;20.85;;;16.30;;
22904;SDS011;11619;50.140;8.518;2022-12-05T14:56:31;20.90;;;15.38;;
22904;SDS011;11619;50.140;8.518;2022-12-05T14:59:04;20.55;;;14.82;;
22904;SDS011;11619;50.140;8.518;2022-12-05T15:01:40;20.02;;;16.25;;
22904;SDS011;11619;50.140;8.518;2022-12-05T15:06:46;18.50;;;15.07;;
22904;SDS011;11619;50.140;8.518;2022-12-05T15:10:01;20.95;;;15.80;;
22904;SDS011;11619;50.140;8.518;2022-12-05T15:12:19;19.63;;;15.68;;
22904;SDS011;11619;50.140;8.518;2022-12-05T15:14:52;19.83;;;15.45;;
22904;SDS011;11619;50.140;8.518;2022-12-05T15:17:26;19.10;;;15.18;;
22904;SDS011;11619;50.140;8.518;2022-12-05T15:19:59;20.50;;;15.55;;
22904;SDS011;11619;50.140;8.518;2022-12-05T15:25:12;23.63;;;16.15;;
22904;SDS011;11619;50.140;8.518;2022-12-05T15:27:39;18.67;;;14.75;;
22904;SDS011;11619;50.140;8.518;2022-12-05T15:30:12;23.02;;;16.85;;
22904;SDS011;11619;50.140;8.518;2022-12-05T15:32:40;23.48;;;17.30;;
22904;SDS011;11619;50.140;8.518;2022-12-05T15:35:08;23.88;;;16.33;;
22904;SDS011;11619;50.140;8.518;2022-12-05T15:37:47;19.50;;;15.18;;
22904;SDS011;11619;50.140;8.518;2022-12-05T15:40:16;23.88;;;16.83;;
22904;SDS011;11619;50.140;8.518;2022-12-05T15:42:47;21.88;;;16.30;;
22904;SDS011;11619;50.140;8.518;2022-12-05T15:45:18;30.23;;;20.13;;
22904;SDS011;11619;50.140;8.518;2022-12-05T15:50:39;24.15;;;18.98;;
22904;SDS011;11619;50.140;8.518;2022-12-05T15:55:45;25.00;;;17.58;;
22904;SDS011;11619;50.140;8.518;2022-12-05T16:01:19;23.27;;;17.05;;
22904;SDS011;11619;50.140;8.518;2022-12-05T16:04:04;22.23;;;16.80;;
22904;SDS011;11619;50.140;8.518;2022-12-05T16:06:38;23.27;;;16.70;;
22904;SDS011;11619;50.140;8.518;2022-12-05T16:09:08;22.67;;;17.35;;
22904;SDS011;11619;50.140;8.518;2022-12-05T16:11:49;23.75;;;17.08;;
22904;SDS011;11619;50.140;8.518;2022-12-05T16:14:17;24.23;;;17.00;;
22904;SDS011;11619;50.140;8.518;2022-12-05T16:17:03;23.17;;;16.73;;
22904;SDS011;11619;50.140;8.518;2022-12-05T16:19:30;24.55;;;17.83;;
22904;SDS011;11619;50.140;8.518;2022-12-05T16:22:16;24.70;;;16.55;;
22904;SDS011;11619;50.140;8.518;2022-12-05T16:27:21;25.23;;;17.10;;
22904;SDS011;11619;50.140;8.518;2022-12-05T16:30:05;22.27;;;16.77;;
22904;SDS011;11619;50.140;8.518;2022-12-05T16:32:41;25.73;;;18.45;;
22904;SDS011;11619;50.140;8.518;2022-12-05T16:40:32;23.27;;;17.02;;
22904;SDS011;11619;50.140;8.518;2022-12-05T16:43:03;23.73;;;18.05;;
22904;SDS011;11619;50.140;8.518;2022-12-05T16:45:40;21.63;;;16.65;;
22904;SDS011;11619;50.140;8.518;2022-12-05T16:48:21;24.67;;;16.85;;
22904;SDS011;11619;50.140;8.518;2022-12-05T16:50:49;25.17;;;16.58;;
22904;SDS011;11619;50.140;8.518;2022-12-05T16:53:34;20.33;;;15.90;;
22904;SDS011;11619;50.140;8.518;2022-12-05T16:56:02;24.45;;;16.65;;
22904;SDS011;11619;50.140;8.518;2022-12-05T16:58:29;20.42;;;15.60;;
22904;SDS011;11619;50.140;8.518;2022-12-05T17:01:00;22.42;;;16.65;;
22904;SDS011;11619;50.140;8.518;2022-12-05T17:03:28;26.60;;;17.50;;
22904;SDS011;11619;50.140;8.518;2022-12-05T17:06:00;24.77;;;17.35;;
22904;SDS011;11619;50.140;8.518;2022-12-05T17:08:27;23.88;;;17.25;;
22904;SDS011;11619;50.140;8.518;2022-12-05T17:10:53;25.65;;;17.45;;
22904;SDS011;11619;50.140;8.518;2022-12-05T17:13:20;20.00;;;16.42;;
22904;SDS011;11619;50.140;8.518;2022-12-05T17:15:46;26.67;;;16.45;;
22904;SDS011;11619;50.140;8.518;2022-12-05T17:18:14;23.00;;;16.27;;
22904;SDS011;11619;50.140;8.518;2022-12-05T17:20:42;21.17;;;16.15;;
22904;SDS011;11619;50.140;8.518;2022-12-05T17:23:13;21.75;;;16.42;;
22904;SDS011;11619;50.140;8.518;2022-12-05T17:25:41;20.58;;;15.02;;
22904;SDS011;11619;50.140;8.518;2022-12-05T17:28:09;22.23;;;14.40;;
22904;SDS011;11619;50.140;8.518;2022-12-05T17:30:35;19.52;;;14.07;;
22904;SDS011;11619;50.140;8.518;2022-12-05T17:33:03;18.17;;;13.60;;
22904;SDS011;11619;50.140;8.518;2022-12-05T17:35:30;19.27;;;13.82;;
22904;SDS011;11619;50.140;8.518;2022-12-05T17:37:56;21.02;;;16.95;;